sensor_id;sensor_type;location;lat;lon;timestamp;temperature;humidity
47961;DHT22;33721;48.852;9.936;2022-11-15T00:00:25;8.00;99.90
47961;DHT22;33721;48.852;9.936;2022-11-15T00:02:55;8.00;99.90
47961;DHT22;33721;48.852;9.936;2022-11-15T00:05:21;8.10;99.90
47961;DHT22;33721;48.852;9.936;2022-11-15T00:07:46;8.10;99.90
47961;DHT22;33721;48.852;9.936;2022-11-15T00:10:12;8.10;99.90
47961;DHT22;33721;48.852;9.936;2022-11-15T00:12:38;8.10;99.90
47961;DHT22;33721;48.852;9.936;2022-11-15T00:15:04;8.10;99.90
47961;DHT22;33721;48.852;9.936;2022-11-15T00:17:30;8.10;99.90
47961;DHT22;33721;48.852;9.936;2022-11-15T00:19:55;8.10;99.90
47961;DHT22;33721;48.852;9.936;2022-11-15T00:22:21;8.10;99.90
47961;DHT22;33721;48.852;9.936;2022-11-15T00:24:47;8.10;99.90
47961;DHT22;33721;48.852;9.936;2022-11-15T00:27:13;8.10;99.90
47961;DHT22;33721;48.852;9.936;2022-11-15T00:29:38;8.10;99.90
47961;DHT22;33721;48.852;9.936;2022-11-15T00:32:09;8.10;99.90
47961;DHT22;33721;48.852;9.936;2022-11-15T00:34:35;8.10;99.90
47961;DHT22;33721;48.852;9.936;2022-11-15T00:37:01;8.20;99.90
47961;DHT22;33721;48.852;9.936;2022-11-15T00:39:26;8.20;99.90
47961;DHT22;33721;48.852;9.936;2022-11-15T00:41:52;8.20;99.90
47961;DHT22;33721;48.852;9.936;2022-11-15T00:44:18;8.10;99.90
47961;DHT22;33721;48.852;9.936;2022-11-15T00:46:43;8.10;99.90
47961;DHT22;33721;48.852;9.936;2022-11-15T00:49:09;8.10;99.90
47961;DHT22;33721;48.852;9.936;2022-11-15T00:51:34;8.10;99.90
47961;DHT22;33721;48.852;9.936;2022-11-15T00:54:00;8.10;99.90
47961;DHT22;33721;48.852;9.936;2022-11-15T00:56:26;8.20;99.90
47961;DHT22;33721;48.852;9.936;2022-11-15T00:58:52;8.20;99.90
47961;DHT22;33721;48.852;9.936;2022-11-15T01:01:18;8.20;99.90
47961;DHT22;33721;48.852;9.936;2022-11-15T01:03:44;8.20;99.90
47961;DHT22;33721;48.852;9.936;2022-11-15T01:06:10;8.20;99.90
47961;DHT22;33721;48.852;9.936;2022-11-15T01:08:35;8.20;99.90
47961;DHT22;33721;48.852;9.936;2022-11-15T01:11:07;8.10;99.90
47961;DHT22;33721;48.852;9.936;2022-11-15T01:13:34;8.00;99.90
47961;DHT22;33721;48.852;9.936;2022-11-15T01:16:10;8.00;99.90
47961;DHT22;33721;48.852;9.936;2022-11-15T01:18:37;8.00;99.90
47961;DHT22;33721;48.852;9.936;2022-11-15T01:21:08;8.00;99.90
47961;DHT22;33721;48.852;9.936;2022-11-15T01:23:34;8.00;99.90
47961;DHT22;33721;48.852;9.936;2022-11-15T01:26:00;8.10;99.90
47961;DHT22;33721;48.852;9.936;2022-11-15T01:28:33;8.00;99.90
47961;DHT22;33721;48.852;9.936;2022-11-15T01:31:00;8.00;99.90
47961;DHT22;33721;48.852;9.936;2022-11-15T01:33:28;8.00;99.90
47961;DHT22;33721;48.852;9.936;2022-11-15T01:35:54;8.00;99.90
47961;DHT22;33721;48.852;9.936;2022-11-15T01:38:20;8.00;99.90
47961;DHT22;33721;48.852;9.936;2022-11-15T01:40:46;8.00;99.90
47961;DHT22;33721;48.852;9.936;2022-11-15T01:48:54;8.00;99.90
47961;DHT22;33721;48.852;9.936;2022-11-15T01:51:22;8.00;99.90
47961;DHT22;33721;48.852;9.936;2022-11-15T01:53:54;8.00;99.90
47961;DHT22;33721;48.852;9.936;2022-11-15T01:56:24;8.00;99.90
47961;DHT22;33721;48.852;9.936;2022-11-15T01:58:51;7.90;99.90
47961;DHT22;33721;48.852;9.936;2022-11-15T02:01:18;7.90;99.90
47961;DHT22;33721;48.852;9.936;2022-11-15T02:04:22;7.90;99.90
47961;DHT22;33721;48.852;9.936;2022-11-15T02:06:49;7.80;99.90
47961;DHT22;33721;48.852;9.936;2022-11-15T02:09:15;7.80;99.90
47961;DHT22;33721;48.852;9.936;2022-11-15T02:11:42;7.70;99.90
47961;DHT22;33721;48.852;9.936;2022-11-15T02:14:09;7.60;99.90
47961;DHT22;33721;48.852;9.936;2022-11-15T02:16:39;7.60;99.90
47961;DHT22;33721;48.852;9.936;2022-11-15T02:22:13;7.50;99.90
47961;DHT22;33721;48.852;9.936;2022-11-15T02:30:54;7.50;99.90
47961;DHT22;33721;48.852;9.936;2022-11-15T02:36:15;7.50;99.90
47961;DHT22;33721;48.852;9.936;2022-11-15T02:41:45;7.40;99.90
47961;DHT22;33721;48.852;9.936;2022-11-15T02:44:33;7.30;99.90
47961;DHT22;33721;48.852;9.936;2022-11-15T02:47:06;7.30;99.90
47961;DHT22;33721;48.852;9.936;2022-11-15T02:49:45;7.20;99.90
47961;DHT22;33721;48.852;9.936;2022-11-15T02:52:19;7.10;99.90
47961;DHT22;33721;48.852;9.936;2022-11-15T02:54:56;7.10;99.90
47961;DHT22;33721;48.852;9.936;2022-11-15T02:57:52;6.90;99.90
47961;DHT22;33721;48.852;9.936;2022-11-15T03:00:21;6.90;99.90
47961;DHT22;33721;48.852;9.936;2022-11-15T03:05:56;6.90;99.90
47961;DHT22;33721;48.852;9.936;2022-11-15T03:08:31;6.80;99.90
47961;DHT22;33721;48.852;9.936;2022-11-15T03:11:11;6.80;99.90
47961;DHT22;33721;48.852;9.936;2022-11-15T03:13:44;6.80;99.90
47961;DHT22;33721;48.852;9.936;2022-11-15T03:18:56;6.70;99.90
47961;DHT22;33721;48.852;9.936;2022-11-15T03:21:24;6.70;99.90
47961;DHT22;33721;48.852;9.936;2022-11-15T03:23:51;6.60;99.90
47961;DHT22;33721;48.852;9.936;2022-11-15T03:26:20;6.60;99.90
47961;DHT22;33721;48.852;9.936;2022-11-15T03:31:14;6.50;99.90
47961;DHT22;33721;48.852;9.936;2022-11-15T03:34:04;6.50;99.90
47961;DHT22;33721;48.852;9.936;2022-11-15T03:36:32;6.50;99.90
47961;DHT22;33721;48.852;9.936;2022-11-15T03:39:02;6.40;99.90
47961;DHT22;33721;48.852;9.936;2022-11-15T03:41:53;6.40;99.90
47961;DHT22;33721;48.852;9.936;2022-11-15T03:47:49;6.30;99.90
47961;DHT22;33721;48.852;9.936;2022-11-15T03:50:12;6.30;99.90
47961;DHT22;33721;48.852;9.936;2022-11-15T03:52:39;6.30;99.90
47961;DHT22;33721;48.852;9.936;2022-11-15T03:55:09;6.20;99.90
47961;DHT22;33721;48.852;9.936;2022-11-15T03:57:36;6.20;99.90
47961;DHT22;33721;48.852;9.936;2022-11-15T04:00:05;6.20;99.90
47961;DHT22;33721;48.852;9.936;2022-11-15T04:02:31;6.20;99.90
47961;DHT22;33721;48.852;9.936;2022-11-15T04:04:56;6.20;99.90
47961;DHT22;33721;48.852;9.936;2022-11-15T04:07:22;6.20;99.90
47961;DHT22;33721;48.852;9.936;2022-11-15T04:09:48;6.10;99.90
47961;DHT22;33721;48.852;9.936;2022-11-15T04:12:32;6.10;99.90
47961;DHT22;33721;48.852;9.936;2022-11-15T04:15:12;6.10;99.90
47961;DHT22;33721;48.852;9.936;2022-11-15T04:17:50;6.10;99.90
47961;DHT22;33721;48.852;9.936;2022-11-15T04:20:20;6.00;99.90
47961;DHT22;33721;48.852;9.936;2022-11-15T04:23:19;6.00;99.90
47961;DHT22;33721;48.852;9.936;2022-11-15T04:26:06;5.90;99.90
47961;DHT22;33721;48.852;9.936;2022-11-15T04:28:33;5.90;99.90
47961;DHT22;33721;48.852;9.936;2022-11-15T04:30:59;5.80;99.90
47961;DHT22;33721;48.852;9.936;2022-11-15T04:33:25;5.80;99.90
47961;DHT22;33721;48.852;9.936;2022-11-15T04:35:51;5.70;99.90
47961;DHT22;33721;48.852;9.936;2022-11-15T04:38:36;5.70;99.90
47961;DHT22;33721;48.852;9.936;2022-11-15T04:41:02;5.70;99.90
47961;DHT22;33721;48.852;9.936;2022-11-15T04:43:28;5.80;99.90
47961;DHT22;33721;48.852;9.936;2022-11-15T04:45:54;5.80;99.90
47961;DHT22;33721;48.852;9.936;2022-11-15T04:48:20;6.00;99.90
47961;DHT22;33721;48.852;9.936;2022-11-15T04:50:48;6.30;99.90
47961;DHT22;33721;48.852;9.936;2022-11-15T04:53:14;6.70;99.90
47961;DHT22;33721;48.852;9.936;2022-11-15T04:55:39;6.90;99.90
47961;DHT22;33721;48.852;9.936;2022-11-15T04:58:05;7.10;99.90
47961;DHT22;33721;48.852;9.936;2022-11-15T05:00:30;7.30;99.90
47961;DHT22;33721;48.852;9.936;2022-11-15T05:02:57;7.40;99.90
47961;DHT22;33721;48.852;9.936;2022-11-15T05:05:41;7.50;99.90
47961;DHT22;33721;48.852;9.936;2022-11-15T05:08:07;7.60;99.90
47961;DHT22;33721;48.852;9.936;2022-11-15T05:10:33;7.70;99.90
47961;DHT22;33721;48.852;9.936;2022-11-15T05:12:58;7.90;99.90
47961;DHT22;33721;48.852;9.936;2022-11-15T05:15:24;7.90;99.90
47961;DHT22;33721;48.852;9.936;2022-11-15T05:17:50;8.00;99.90
47961;DHT22;33721;48.852;9.936;2022-11-15T05:20:15;8.00;99.90
47961;DHT22;33721;48.852;9.936;2022-11-15T05:22:41;8.00;99.90
47961;DHT22;33721;48.852;9.936;2022-11-15T05:25:07;8.10;99.90
47961;DHT22;33721;48.852;9.936;2022-11-15T05:27:34;8.10;99.90
47961;DHT22;33721;48.852;9.936;2022-11-15T05:29:59;8.10;99.90
47961;DHT22;33721;48.852;9.936;2022-11-15T05:32:25;8.20;99.90
47961;DHT22;33721;48.852;9.936;2022-11-15T05:34:51;8.20;99.90
47961;DHT22;33721;48.852;9.936;2022-11-15T05:37:17;8.20;99.90
47961;DHT22;33721;48.852;9.936;2022-11-15T05:39:43;8.30;99.90
47961;DHT22;33721;48.852;9.936;2022-11-15T05:42:11;8.30;99.90
47961;DHT22;33721;48.852;9.936;2022-11-15T05:44:40;8.30;99.90
47961;DHT22;33721;48.852;9.936;2022-11-15T05:47:09;8.40;99.90
47961;DHT22;33721;48.852;9.936;2022-11-15T05:49:38;8.40;99.90
47961;DHT22;33721;48.852;9.936;2022-11-15T05:52:07;8.40;99.90
47961;DHT22;33721;48.852;9.936;2022-11-15T05:54:35;7.70;99.90
47961;DHT22;33721;48.852;9.936;2022-11-15T05:57:01;7.30;99.90
47961;DHT22;33721;48.852;9.936;2022-11-15T05:59:31;7.10;99.90
47961;DHT22;33721;48.852;9.936;2022-11-15T06:01:58;7.00;99.90
47961;DHT22;33721;48.852;9.936;2022-11-15T06:04:24;6.80;99.90
47961;DHT22;33721;48.852;9.936;2022-11-15T06:06:50;6.70;99.90
47961;DHT22;33721;48.852;9.936;2022-11-15T06:09:16;6.70;99.90
47961;DHT22;33721;48.852;9.936;2022-11-15T06:11:41;6.60;99.90
47961;DHT22;33721;48.852;9.936;2022-11-15T06:14:07;6.50;99.90
47961;DHT22;33721;48.852;9.936;2022-11-15T06:16:32;6.40;99.90
47961;DHT22;33721;48.852;9.936;2022-11-15T06:18:58;6.50;99.90
47961;DHT22;33721;48.852;9.936;2022-11-15T06:21:24;6.50;99.90
47961;DHT22;33721;48.852;9.936;2022-11-15T06:23:49;6.60;99.90
47961;DHT22;33721;48.852;9.936;2022-11-15T06:26:15;6.60;99.90
47961;DHT22;33721;48.852;9.936;2022-11-15T06:28:40;6.50;99.90
47961;DHT22;33721;48.852;9.936;2022-11-15T06:31:09;6.30;99.90
47961;DHT22;33721;48.852;9.936;2022-11-15T06:33:34;6.10;99.90
47961;DHT22;33721;48.852;9.936;2022-11-15T06:36:04;6.10;99.90
47961;DHT22;33721;48.852;9.936;2022-11-15T06:38:31;6.00;99.90
47961;DHT22;33721;48.852;9.936;2022-11-15T06:41:04;6.10;99.90
47961;DHT22;33721;48.852;9.936;2022-11-15T06:43:30;6.10;99.90
47961;DHT22;33721;48.852;9.936;2022-11-15T06:45:58;5.90;99.90
47961;DHT22;33721;48.852;9.936;2022-11-15T06:48:25;5.90;99.90
47961;DHT22;33721;48.852;9.936;2022-11-15T06:50:55;6.00;99.90
47961;DHT22;33721;48.852;9.936;2022-11-15T06:53:21;6.00;99.90
47961;DHT22;33721;48.852;9.936;2022-11-15T06:55:47;6.00;99.90
47961;DHT22;33721;48.852;9.936;2022-11-15T06:58:13;6.20;99.90
47961;DHT22;33721;48.852;9.936;2022-11-15T07:00:39;6.30;99.90
47961;DHT22;33721;48.852;9.936;2022-11-15T07:03:05;6.10;99.90
47961;DHT22;33721;48.852;9.936;2022-11-15T07:05:31;6.20;99.90
47961;DHT22;33721;48.852;9.936;2022-11-15T07:07:57;6.20;99.90
47961;DHT22;33721;48.852;9.936;2022-11-15T07:10:24;6.20;99.90
47961;DHT22;33721;48.852;9.936;2022-11-15T07:12:51;6.20;99.90
47961;DHT22;33721;48.852;9.936;2022-11-15T07:15:21;6.20;99.90
47961;DHT22;33721;48.852;9.936;2022-11-15T07:17:47;6.10;99.90
47961;DHT22;33721;48.852;9.936;2022-11-15T07:20:13;6.00;99.90
47961;DHT22;33721;48.852;9.936;2022-11-15T07:22:40;6.00;99.90
47961;DHT22;33721;48.852;9.936;2022-11-15T07:25:06;5.90;99.90
47961;DHT22;33721;48.852;9.936;2022-11-15T07:27:32;6.00;99.90
47961;DHT22;33721;48.852;9.936;2022-11-15T07:29:58;6.10;99.90
47961;DHT22;33721;48.852;9.936;2022-11-15T07:32:23;6.20;99.90
47961;DHT22;33721;48.852;9.936;2022-11-15T07:34:49;6.30;99.90
47961;DHT22;33721;48.852;9.936;2022-11-15T07:37:15;6.40;99.90
47961;DHT22;33721;48.852;9.936;2022-11-15T07:39:42;6.40;99.90
47961;DHT22;33721;48.852;9.936;2022-11-15T07:42:07;6.50;99.90
47961;DHT22;33721;48.852;9.936;2022-11-15T07:44:52;6.50;99.90
47961;DHT22;33721;48.852;9.936;2022-11-15T07:47:17;6.60;99.90
47961;DHT22;33721;48.852;9.936;2022-11-15T07:49:43;6.70;99.90
47961;DHT22;33721;48.852;9.936;2022-11-15T07:52:08;6.80;99.90
47961;DHT22;33721;48.852;9.936;2022-11-15T07:54:34;6.80;99.90
47961;DHT22;33721;48.852;9.936;2022-11-15T07:57:00;6.80;99.90
47961;DHT22;33721;48.852;9.936;2022-11-15T07:59:25;6.80;99.90
47961;DHT22;33721;48.852;9.936;2022-11-15T08:01:51;6.80;99.90
47961;DHT22;33721;48.852;9.936;2022-11-15T08:04:16;6.90;99.90
47961;DHT22;33721;48.852;9.936;2022-11-15T08:06:42;7.00;99.90
47961;DHT22;33721;48.852;9.936;2022-11-15T08:09:08;7.10;99.90
47961;DHT22;33721;48.852;9.936;2022-11-15T08:11:33;7.10;99.90
47961;DHT22;33721;48.852;9.936;2022-11-15T08:13:59;7.30;99.90
47961;DHT22;33721;48.852;9.936;2022-11-15T08:16:25;7.40;99.90
47961;DHT22;33721;48.852;9.936;2022-11-15T08:18:50;7.50;99.90
47961;DHT22;33721;48.852;9.936;2022-11-15T08:21:18;7.70;99.90
47961;DHT22;33721;48.852;9.936;2022-11-15T08:23:45;7.90;99.90
47961;DHT22;33721;48.852;9.936;2022-11-15T08:26:10;8.20;99.90
47961;DHT22;33721;48.852;9.936;2022-11-15T08:28:36;8.40;99.90
47961;DHT22;33721;48.852;9.936;2022-11-15T08:31:02;8.70;99.90
47961;DHT22;33721;48.852;9.936;2022-11-15T08:33:28;8.80;99.90
47961;DHT22;33721;48.852;9.936;2022-11-15T08:36:00;9.00;99.90
47961;DHT22;33721;48.852;9.936;2022-11-15T08:38:27;9.10;99.90
47961;DHT22;33721;48.852;9.936;2022-11-15T08:41:01;9.20;99.90
47961;DHT22;33721;48.852;9.936;2022-11-15T08:43:27;9.30;99.90
47961;DHT22;33721;48.852;9.936;2022-11-15T08:45:56;9.40;99.90
47961;DHT22;33721;48.852;9.936;2022-11-15T08:48:22;9.60;99.90
47961;DHT22;33721;48.852;9.936;2022-11-15T08:50:48;9.60;99.90
47961;DHT22;33721;48.852;9.936;2022-11-15T08:53:13;9.70;99.90
47961;DHT22;33721;48.852;9.936;2022-11-15T08:55:40;9.80;99.90
47961;DHT22;33721;48.852;9.936;2022-11-15T08:58:06;9.90;99.90
47961;DHT22;33721;48.852;9.936;2022-11-15T09:00:33;10.10;99.90
47961;DHT22;33721;48.852;9.936;2022-11-15T09:02:58;10.30;99.90
47961;DHT22;33721;48.852;9.936;2022-11-15T09:05:25;10.40;99.90
47961;DHT22;33721;48.852;9.936;2022-11-15T09:07:54;10.60;99.90
47961;DHT22;33721;48.852;9.936;2022-11-15T09:10:21;10.70;99.90
47961;DHT22;33721;48.852;9.936;2022-11-15T09:12:46;10.90;99.90
47961;DHT22;33721;48.852;9.936;2022-11-15T09:15:15;11.10;99.90
47961;DHT22;33721;48.852;9.936;2022-11-15T09:17:41;11.30;99.90
47961;DHT22;33721;48.852;9.936;2022-11-15T09:20:07;11.40;99.90
47961;DHT22;33721;48.852;9.936;2022-11-15T09:22:33;11.60;99.90
47961;DHT22;33721;48.852;9.936;2022-11-15T09:24:59;11.80;99.90
47961;DHT22;33721;48.852;9.936;2022-11-15T09:27:28;12.10;99.90
47961;DHT22;33721;48.852;9.936;2022-11-15T09:29:54;12.40;99.90
47961;DHT22;33721;48.852;9.936;2022-11-15T09:32:19;12.60;99.90
47961;DHT22;33721;48.852;9.936;2022-11-15T09:34:45;12.90;99.90
47961;DHT22;33721;48.852;9.936;2022-11-15T09:37:11;13.10;99.90
47961;DHT22;33721;48.852;9.936;2022-11-15T09:39:37;13.10;99.90
47961;DHT22;33721;48.852;9.936;2022-11-15T09:44:39;13.30;99.90
47961;DHT22;33721;48.852;9.936;2022-11-15T09:49:41;13.40;99.90
47961;DHT22;33721;48.852;9.936;2022-11-15T09:52:07;13.40;99.90
47961;DHT22;33721;48.852;9.936;2022-11-15T09:54:37;13.50;99.90
47961;DHT22;33721;48.852;9.936;2022-11-15T09:57:11;13.60;99.90
47961;DHT22;33721;48.852;9.936;2022-11-15T09:59:52;13.60;99.90
47961;DHT22;33721;48.852;9.936;2022-11-15T10:02:33;13.70;99.90
47961;DHT22;33721;48.852;9.936;2022-11-15T10:05:02;13.80;99.90
47961;DHT22;33721;48.852;9.936;2022-11-15T10:07:40;13.90;99.90
47961;DHT22;33721;48.852;9.936;2022-11-15T10:12:50;14.20;99.90
47961;DHT22;33721;48.852;9.936;2022-11-15T10:15:18;14.10;99.90
47961;DHT22;33721;48.852;9.936;2022-11-15T10:18:13;13.90;99.90
47961;DHT22;33721;48.852;9.936;2022-11-15T10:21:02;13.90;99.90
47961;DHT22;33721;48.852;9.936;2022-11-15T10:23:34;13.80;99.90
47961;DHT22;33721;48.852;9.936;2022-11-15T10:26:00;13.80;99.90
47961;DHT22;33721;48.852;9.936;2022-11-15T10:28:28;13.80;99.90
47961;DHT22;33721;48.852;9.936;2022-11-15T10:30:57;13.70;99.90
47961;DHT22;33721;48.852;9.936;2022-11-15T10:33:37;13.80;99.90
47961;DHT22;33721;48.852;9.936;2022-11-15T10:39:04;13.80;99.90
47961;DHT22;33721;48.852;9.936;2022-11-15T10:41:37;13.80;99.90
47961;DHT22;33721;48.852;9.936;2022-11-15T10:46:32;14.00;99.90
47961;DHT22;33721;48.852;9.936;2022-11-15T10:49:25;14.10;99.90
47961;DHT22;33721;48.852;9.936;2022-11-15T10:52:00;14.10;99.90
47961;DHT22;33721;48.852;9.936;2022-11-15T10:54:49;14.20;99.90
47961;DHT22;33721;48.852;9.936;2022-11-15T10:57:24;14.30;99.90
47961;DHT22;33721;48.852;9.936;2022-11-15T11:00:03;14.30;99.90
47961;DHT22;33721;48.852;9.936;2022-11-15T11:02:38;14.30;99.90
47961;DHT22;33721;48.852;9.936;2022-11-15T11:05:24;14.40;99.90
47961;DHT22;33721;48.852;9.936;2022-11-15T11:08:00;14.50;99.90
47961;DHT22;33721;48.852;9.936;2022-11-15T11:10:27;14.60;99.90
47961;DHT22;33721;48.852;9.936;2022-11-15T11:12:53;14.70;99.90
47961;DHT22;33721;48.852;9.936;2022-11-15T11:15:19;14.80;99.90
47961;DHT22;33721;48.852;9.936;2022-11-15T11:20:34;14.70;99.90
47961;DHT22;33721;48.852;9.936;2022-11-15T11:26:07;14.70;99.90
47961;DHT22;33721;48.852;9.936;2022-11-15T11:31:40;14.80;99.90
47961;DHT22;33721;48.852;9.936;2022-11-15T11:39:55;15.20;99.90
47961;DHT22;33721;48.852;9.936;2022-11-15T11:45:57;15.20;99.90
47961;DHT22;33721;48.852;9.936;2022-11-15T11:48:48;15.20;99.90
47961;DHT22;33721;48.852;9.936;2022-11-15T11:51:26;15.30;99.90
47961;DHT22;33721;48.852;9.936;2022-11-15T11:56:40;15.30;99.90
47961;DHT22;33721;48.852;9.936;2022-11-15T12:01:41;15.20;99.90
47961;DHT22;33721;48.852;9.936;2022-11-15T12:04:23;15.00;99.90
47961;DHT22;33721;48.852;9.936;2022-11-15T12:07:01;14.80;99.90
47961;DHT22;33721;48.852;9.936;2022-11-15T12:10:03;14.80;99.90
47961;DHT22;33721;48.852;9.936;2022-11-15T12:12:38;15.00;99.90
47961;DHT22;33721;48.852;9.936;2022-11-15T12:15:12;15.00;99.90
47961;DHT22;33721;48.852;9.936;2022-11-15T12:17:40;15.00;99.90
47961;DHT22;33721;48.852;9.936;2022-11-15T12:20:22;14.90;99.90
47961;DHT22;33721;48.852;9.936;2022-11-15T12:23:03;14.90;99.90
47961;DHT22;33721;48.852;9.936;2022-11-15T12:29:20;14.90;99.90
47961;DHT22;33721;48.852;9.936;2022-11-15T12:31:51;14.90;99.90
47961;DHT22;33721;48.852;9.936;2022-11-15T12:36:47;15.00;99.90
47961;DHT22;33721;48.852;9.936;2022-11-15T12:39:15;15.30;99.90
47961;DHT22;33721;48.852;9.936;2022-11-15T12:41:43;15.50;99.90
47961;DHT22;33721;48.852;9.936;2022-11-15T12:47:03;15.30;99.90
47961;DHT22;33721;48.852;9.936;2022-11-15T12:59:55;14.80;99.90
47961;DHT22;33721;48.852;9.936;2022-11-15T13:02:39;14.80;99.90
47961;DHT22;33721;48.852;9.936;2022-11-15T13:13:02;14.80;99.90
47961;DHT22;33721;48.852;9.936;2022-11-15T13:18:25;14.80;99.90
47961;DHT22;33721;48.852;9.936;2022-11-15T13:20:52;14.90;99.90
47961;DHT22;33721;48.852;9.936;2022-11-15T13:23:17;14.80;99.90
47961;DHT22;33721;48.852;9.936;2022-11-15T13:31:25;14.60;99.90
47961;DHT22;33721;48.852;9.936;2022-11-15T13:33:52;14.60;99.90
47961;DHT22;33721;48.852;9.936;2022-11-15T13:36:28;14.60;99.90
47961;DHT22;33721;48.852;9.936;2022-11-15T13:39:06;14.70;99.90
47961;DHT22;33721;48.852;9.936;2022-11-15T13:41:47;14.70;99.90
47961;DHT22;33721;48.852;9.936;2022-11-15T13:44:24;14.80;99.90
47961;DHT22;33721;48.852;9.936;2022-11-15T13:47:05;14.80;99.90
47961;DHT22;33721;48.852;9.936;2022-11-15T13:49:32;14.80;99.90
47961;DHT22;33721;48.852;9.936;2022-11-15T13:52:00;14.70;99.90
47961;DHT22;33721;48.852;9.936;2022-11-15T13:57:05;14.60;99.90
47961;DHT22;33721;48.852;9.936;2022-11-15T13:59:36;14.70;99.90
47961;DHT22;33721;48.852;9.936;2022-11-15T14:02:17;14.60;99.90
47961;DHT22;33721;48.852;9.936;2022-11-15T14:07:35;14.60;99.90
47961;DHT22;33721;48.852;9.936;2022-11-15T14:10:25;14.60;99.90
47961;DHT22;33721;48.852;9.936;2022-11-15T14:12:51;14.50;99.90
47961;DHT22;33721;48.852;9.936;2022-11-15T14:15:38;14.50;99.90
47961;DHT22;33721;48.852;9.936;2022-11-15T14:18:05;14.50;99.90
47961;DHT22;33721;48.852;9.936;2022-11-15T14:20:32;14.40;99.90
47961;DHT22;33721;48.852;9.936;2022-11-15T14:23:01;14.40;99.90
47961;DHT22;33721;48.852;9.936;2022-11-15T14:25:31;14.40;99.90
47961;DHT22;33721;48.852;9.936;2022-11-15T14:30:42;14.30;99.90
47961;DHT22;33721;48.852;9.936;2022-11-15T14:33:30;14.20;99.90
47961;DHT22;33721;48.852;9.936;2022-11-15T14:35:58;14.10;99.90
47961;DHT22;33721;48.852;9.936;2022-11-15T14:38:25;14.00;99.90
47961;DHT22;33721;48.852;9.936;2022-11-15T14:40:51;14.00;99.90
47961;DHT22;33721;48.852;9.936;2022-11-15T14:43:17;13.90;99.90
47961;DHT22;33721;48.852;9.936;2022-11-15T14:45:42;13.90;99.90
47961;DHT22;33721;48.852;9.936;2022-11-15T14:48:09;13.80;99.90
47961;DHT22;33721;48.852;9.936;2022-11-15T14:50:35;13.80;99.90
47961;DHT22;33721;48.852;9.936;2022-11-15T14:53:01;13.70;99.90
47961;DHT22;33721;48.852;9.936;2022-11-15T14:55:29;13.60;99.90
47961;DHT22;33721;48.852;9.936;2022-11-15T14:58:00;13.60;99.90
47961;DHT22;33721;48.852;9.936;2022-11-15T15:00:31;13.50;99.90
47961;DHT22;33721;48.852;9.936;2022-11-15T15:02:58;13.50;99.90
47961;DHT22;33721;48.852;9.936;2022-11-15T15:05:48;13.50;99.90
47961;DHT22;33721;48.852;9.936;2022-11-15T15:08:14;13.40;99.90
47961;DHT22;33721;48.852;9.936;2022-11-15T15:10:44;13.40;99.90
47961;DHT22;33721;48.852;9.936;2022-11-15T15:13:22;13.30;99.90
47961;DHT22;33721;48.852;9.936;2022-11-15T15:15:50;13.40;99.90
47961;DHT22;33721;48.852;9.936;2022-11-15T15:18:16;13.30;99.90
47961;DHT22;33721;48.852;9.936;2022-11-15T15:20:43;13.20;99.90
47961;DHT22;33721;48.852;9.936;2022-11-15T15:23:16;13.20;99.90
47961;DHT22;33721;48.852;9.936;2022-11-15T15:25:42;13.10;99.90
47961;DHT22;33721;48.852;9.936;2022-11-15T15:28:09;13.10;99.90
47961;DHT22;33721;48.852;9.936;2022-11-15T15:30:34;13.00;99.90
47961;DHT22;33721;48.852;9.936;2022-11-15T15:33:00;12.90;99.90
47961;DHT22;33721;48.852;9.936;2022-11-15T15:35:30;12.90;99.90
47961;DHT22;33721;48.852;9.936;2022-11-15T15:37:57;12.90;99.90
47961;DHT22;33721;48.852;9.936;2022-11-15T15:40:24;12.80;99.90
47961;DHT22;33721;48.852;9.936;2022-11-15T15:42:50;12.90;99.90
47961;DHT22;33721;48.852;9.936;2022-11-15T15:45:16;12.80;99.90
47961;DHT22;33721;48.852;9.936;2022-11-15T15:47:43;12.80;99.90
47961;DHT22;33721;48.852;9.936;2022-11-15T15:52:43;12.70;99.90
47961;DHT22;33721;48.852;9.936;2022-11-15T15:55:08;12.70;99.90
47961;DHT22;33721;48.852;9.936;2022-11-15T15:57:35;12.70;99.90
47961;DHT22;33721;48.852;9.936;2022-11-15T16:00:02;12.60;99.90
47961;DHT22;33721;48.852;9.936;2022-11-15T16:02:28;12.60;99.90
47961;DHT22;33721;48.852;9.936;2022-11-15T16:04:53;12.60;99.90
47961;DHT22;33721;48.852;9.936;2022-11-15T16:07:22;12.50;99.90
47961;DHT22;33721;48.852;9.936;2022-11-15T16:09:49;12.50;99.90
47961;DHT22;33721;48.852;9.936;2022-11-15T16:12:29;12.40;99.90
47961;DHT22;33721;48.852;9.936;2022-11-15T16:14:54;12.40;99.90
47961;DHT22;33721;48.852;9.936;2022-11-15T16:17:22;12.40;99.90
47961;DHT22;33721;48.852;9.936;2022-11-15T16:19:48;12.30;99.90
47961;DHT22;33721;48.852;9.936;2022-11-15T16:22:14;12.20;99.90
47961;DHT22;33721;48.852;9.936;2022-11-15T16:24:39;12.10;99.90
47961;DHT22;33721;48.852;9.936;2022-11-15T16:27:05;12.00;99.90
47961;DHT22;33721;48.852;9.936;2022-11-15T16:29:31;12.00;99.90
47961;DHT22;33721;48.852;9.936;2022-11-15T16:31:56;11.90;99.90
47961;DHT22;33721;48.852;9.936;2022-11-15T16:34:22;11.90;99.90
47961;DHT22;33721;48.852;9.936;2022-11-15T16:36:48;11.90;99.90
47961;DHT22;33721;48.852;9.936;2022-11-15T16:39:14;11.80;99.90
47961;DHT22;33721;48.852;9.936;2022-11-15T16:41:42;11.80;99.90
47961;DHT22;33721;48.852;9.936;2022-11-15T16:44:12;11.80;99.90
47961;DHT22;33721;48.852;9.936;2022-11-15T16:46:41;11.80;99.90
47961;DHT22;33721;48.852;9.936;2022-11-15T16:49:13;11.80;99.90
47961;DHT22;33721;48.852;9.936;2022-11-15T16:51:40;11.90;99.90
47961;DHT22;33721;48.852;9.936;2022-11-15T16:54:06;11.80;99.90
47961;DHT22;33721;48.852;9.936;2022-11-15T16:56:32;11.80;99.90
47961;DHT22;33721;48.852;9.936;2022-11-15T16:59:00;11.80;99.90
47961;DHT22;33721;48.852;9.936;2022-11-15T17:01:27;11.80;99.90
47961;DHT22;33721;48.852;9.936;2022-11-15T17:03:54;11.70;99.90
47961;DHT22;33721;48.852;9.936;2022-11-15T17:06:23;11.70;99.90
47961;DHT22;33721;48.852;9.936;2022-11-15T17:08:49;11.70;99.90
47961;DHT22;33721;48.852;9.936;2022-11-15T17:11:17;11.70;99.90
47961;DHT22;33721;48.852;9.936;2022-11-15T17:13:43;11.70;99.90
47961;DHT22;33721;48.852;9.936;2022-11-15T17:16:14;11.60;99.90
47961;DHT22;33721;48.852;9.936;2022-11-15T17:18:42;11.60;99.90
47961;DHT22;33721;48.852;9.936;2022-11-15T17:21:18;11.60;99.90
47961;DHT22;33721;48.852;9.936;2022-11-15T17:23:45;11.60;99.90
47961;DHT22;33721;48.852;9.936;2022-11-15T17:26:12;11.60;99.90
47961;DHT22;33721;48.852;9.936;2022-11-15T17:28:38;11.60;99.90
47961;DHT22;33721;48.852;9.936;2022-11-15T17:31:09;11.60;99.90
47961;DHT22;33721;48.852;9.936;2022-11-15T17:33:36;11.60;99.90
47961;DHT22;33721;48.852;9.936;2022-11-15T17:36:05;11.60;99.90
47961;DHT22;33721;48.852;9.936;2022-11-15T17:38:32;11.50;99.90
47961;DHT22;33721;48.852;9.936;2022-11-15T17:41:02;11.50;99.90
47961;DHT22;33721;48.852;9.936;2022-11-15T17:43:29;11.50;99.90
47961;DHT22;33721;48.852;9.936;2022-11-15T17:45:55;11.50;99.90
47961;DHT22;33721;48.852;9.936;2022-11-15T17:48:21;11.50;99.90